METAR AND TAF INFORMATION
METAR FOR UTTT
ADDS - METARS form results

(1213 UTC 17 June 2019)
Data provider http://aviationweather.gov/metar/data/
 
METAR text: UTTT 171200Z 29006KT 260V350 CAVOK 32/02 Q1008 R08R/CLRD70 NOSIG
Conditions at: UTTT (TASKENT/YUZNI , UZ) observed 1200 UTC 17 June 2019
Temperature: 32.0°C (90°F)
Dewpoint: 2.0°C (36°F) [RH = 15%]
Pressure (altimeter): 29.76 inches Hg (1008.0 mb)
Winds: from the WNW (290 degrees) at 7 MPH (6 knots; 3.1 m/s)
Visibility: 6 or more miles (10+ km)
Ceiling: ceiling and visibility are OK
Clouds: unknown
Weather: no significant weather observed at this time

METAR text: UTTT 171130Z 29006KT 230V350 CAVOK 32/02 Q1008 R08R/CLRD70 NOSIG
Conditions at: UTTT (TASKENT/YUZNI , UZ) observed 1130 UTC 17 June 2019
Temperature: 32.0°C (90°F)
Dewpoint: 2.0°C (36°F) [RH = 15%]
Pressure (altimeter): 29.76 inches Hg (1008.0 mb)
Winds: from the WNW (290 degrees) at 7 MPH (6 knots; 3.1 m/s)
Visibility: 6 or more miles (10+ km)
Ceiling: ceiling and visibility are OK
Clouds: unknown
Weather: no significant weather observed at this time

Forecast for: UTTT (TASKENT/YUZNI , UZ)
Text: TAF UTTT 171100Z 1712/1812 26010KT CAVOK
Forecast period: 1200 UTC 17 June 2019 to 1200 UTC 18 June 2019
Forecast type: FROM: standard forecast or significant change
Winds: from the W (260 degrees) at 12 MPH (10 knots; 5.1 m/s)
Visibility: 6 or more miles 10+ km)
Ceiling: unknown
Clouds: missing
Weather: NSW  (no significant weather)
Text: TEMPO 1720/1806 32018KT FEW060CB
Forecast period: 2000 UTC 17 June 2019 to 0600 UTC 18 June 2019
Forecast type: TEMPORARY: The following changes expected for less than half the time period
Winds: from the NW (320 degrees) at 21 MPH (18 knots; 9.3 m/s)
Visibility: missing
Ceiling: at least 12,000 feet AGL
Clouds: few clouds at 6000 feet AGL
Weather: no significant weather forecast for this period

 AIRPORT MAP

 RUNWAY INFORMATION

 AIRPORT FREQUENCIES
Type APP Name TASHKENT A Frequency 125.2 MHZ
Type ATIS Name ATIS Frequency 126.8 MHZ
Type CLD Name TASHKENT D Frequency 129.4 MHZ
Type GCA Name TASHKENT K Frequency 119.4 MHZ
Type GND Name TASHKENT G Frequency 121.7 MHZ
Type TWR Name TASHKENT T Frequency 120.4 MHZ

 AIRPORT NEAR NAVIGATION AIDS
Type NDB Name Tashkent Frequency 285 KHZ
Type NDB Name Tashkent Frequency 285 KHZ
Type VOR-DME Name Tashkent Frequency 113200 KHZ
Type NDB Name Tashkent Frequency 340 KHZ



2018 Air Astana Virtual Airline